Terminal Aerodrome Forecast
Issued by NWS

Home | Current Version | Previous Version | Text Only | Print | Product List | Glossary On
Versions: 1 2 3 4 5 6 7 8 9 10 11 12
000
FTUS45 KABQ 162340
TAFGUP
TAF
KGUP 162340Z 1700/1724 23009KT P6SM BKN200
     FM170200 21005KT P6SM BKN150
     FM170800 VRB03KT P6SM VCSH BKN050
     FM171200 VRB03KT P6SM BKN090=

USA.gov is the U.S. government's official web portal to all federal, state and local government web resources and services.